• Join FlightAware (Why Join?)
  • Login
  • US Flag 
07:01PM EDT


 

Airport Tracker/Info


-or-


 

Live Flight TrackerFlight Track Log ✈ EJA122 ✈ 02-Sep-2013 ✈ KDAL - KICT

Flight Track Log - Related Links

Times and Time Zones

All times are in EDT time to prevent confusion due to time zone crossing. See the EJA122 flight status page for this flight to view local times or setup timezone preferences in your user account.

Time Position Orientation Groundspeed Altitude Reporting Facility
EDT Latitude Longitude Course Direction KTS MPH feet Rate Location/Type
06:02PM 32.8667 -96.8667 320° Northwest 167 192 1,400  Level Dallas / Fort Worth TRACON
06:03PM 32.9000 -96.9000 320° Northwest 204 235 4,300 3,000 Climbing Dallas / Fort Worth TRACON
06:04PM 32.9500 -96.9667 312° West 295 339 7,100 3,360 Climbing Dallas / Fort Worth TRACON
06:05PM 33.0167 -96.9833 348° North 296 341 11,100 3,300 Climbing Dallas / Fort Worth TRACON
06:06PM 33.1583 -97.0339 343° North 339 390 15,600 2,400 Climbing Fort Worth Center
06:07PM 33.2461 -97.0558 348° North 346 398 17,200 1,200 Climbing Fort Worth Center
06:08PM 33.3653 -97.0878 347° North 383 441 18,000 900 Climbing Fort Worth Center
06:09PM 33.4739 -97.0947 357° North 393 452 19,100 1,020 Climbing Fort Worth Center
06:10PM 33.5864 -97.0967 359° North 393 452 20,100 1,020 Climbing Fort Worth Center
06:11PM 33.6992 -97.0964 360° North 398 458 21,200 960 Climbing Fort Worth Center
06:12PM 33.8097 -97.0961 360° North 403 464 22,100 900 Climbing Fort Worth Center
06:13PM 33.9122 -97.0981 359° North 403 464 23,000 900 Climbing Fort Worth Center
06:14PM 34.0228 -97.0953 North 403 464 24,000 960 Climbing Fort Worth Center
06:15PM 34.1292 -97.0975 359° North 403 464 25,000 960 Climbing Fort Worth Center
06:16PM 34.2375 -97.0969 360° North 396 456 26,000 480 Climbing Fort Worth Center
06:17PM 34.3503 -97.0992 359° North 391 450 26,000  Level Fort Worth Center
06:18PM 34.4650 -97.0986 360° North 403 464 26,000  Level Fort Worth Center
06:19PM 34.5819 -97.0983 360° North 403 464 26,000  Level Fort Worth Center
06:20PM 34.6986 -97.0953 North 408 470 26,000  Level Fort Worth Center
06:21PM 34.8178 -97.0947 360° North 413 475 26,000  Level Fort Worth Center
06:22PM 34.9344 -97.0969 359° North 418 481 26,000  Level Fort Worth Center
06:23PM 35.0681 -97.0939 North 429 494 26,000  Level Fort Worth Center
06:24PM 35.1847 -97.0936 360° North 424 488 26,000  Level Fort Worth Center
06:27PM 35.4692 -97.0917 360° North 423 487 26,000  Level Kansas City Center
06:28PM 35.5847 -97.0914 360° North 421 484 26,000  Level Kansas City Center
06:29PM 35.6994 -97.0925 360° North 418 481 26,000 -120 Level Kansas City Center
06:30PM 35.8372 -97.0925 360° North 414 476 25,800 -600 Descending Kansas City Center
06:31PM 35.9536 -97.0931 360° North 419 482 24,800 -900 Descending Kansas City Center
06:32PM 36.0731 -97.0925 360° North 424 488 24,000 -480 Descending Kansas City Center
06:33PM 36.1922 -97.0936 360° North 428 493 23,900 -960 Descending Kansas City Center
06:34PM 36.3094 -97.1169 351° North 430 495 22,100 -1,800 Descending Kansas City Center
06:35PM 36.4492 -97.1483 350° North 428 493 20,300 -1,680 Descending Kansas City Center
06:36PM 36.5631 -97.1747 349° North 419 482 18,700 -1,740 Descending Kansas City Center
06:37PM 36.6722 -97.2064 347° North 408 470 16,800 -1,980 Descending Kansas City Center
06:38PM 36.7750 -97.2275 351° North 381 438 14,700 -2,040 Descending Kansas City Center
06:39PM 36.8683 -97.2489 350° North 367 422 12,700 -1,800 Descending Kansas City Center
06:40PM 36.9819 -97.2753 349° North 351 404 11,100 -1,380 Descending Kansas City Center
06:41PM 37.0706 -97.2947 350° North 331 381 9,900 -960 Descending Kansas City Center
06:42PM 37.1494 -97.3114 350° North 297 342 9,200 -900 Descending Kansas City Center
06:43PM 37.2189 -97.3308 347° North 266 306 8,100 -1,140 Descending Kansas City Center
06:45PM 37.3069 -97.3264 North 273 314 6,700 -1,020 Descending Kansas City Center
06:46PM 37.3619 -97.3075 15° North 270 311 6,000 -420 Descending Kansas City Center
06:47PM 37.4333 -97.3069 360° North 251 289 6,000 -240 Level Kansas City Center
06:48PM 37.4508 -97.3847 286° West 239 275 5,600 -840 Descending Kansas City Center
06:49PM 37.4850 -97.4478 304° West 236 272 4,300 -1,020 Descending Kansas City Center
06:50PM 37.5422 -97.4650 347° North 219 252 3,600 -960 Descending Kansas City Center
06:51PM 37.5903 -97.4514 13° North 147 169 2,400 -960 Descending Kansas City Center
06:52PM 37.6264 -97.4353 19° North 132 152 1,700 -720 Descending Kansas City Center
06:54PM 37.6333 -97.4167 North  Level FlightAware Approximate
07:01PM 37.6499 -97.4331 North  Level Estimated